Time;durP1;ratioP1;P1;durP2;ratioP2;P2;SDS_P1;SDS_P2;PMS_P1;PMS_P2;Temp;Humidity;BMP_temperature;BMP_pressure;BME280_temperature;BME280_humidity;BME280_pressure;Samples;Min_cycle;Max_cycle;Signal;HPM_P1;HPM_P2
2022/05/20 00:01:08;;;;;;;3.25;2.95;;;18.10;99.90;;;;;;5047685;28;20029;-77
2022/05/20 00:03:38;;;;;;;2.97;2.78;;;18.10;99.90;;;;;;5047599;28;20171;-81
2022/05/20 00:06:04;;;;;;;3.42;3.13;;;18.10;99.90;;;;;;5024496;28;20022;-81
2022/05/20 00:08:31;;;;;;;2.67;2.47;;;18.10;99.90;;;;;;5024339;28;20029;-80
2022/05/20 00:10:57;;;;;;;4.00;2.45;;;18.20;99.90;;;;;;5023242;28;20079;-80
2022/05/20 00:13:25;;;;;;;2.70;2.40;;;18.30;99.90;;;;;;5042951;28;20377;-80
2022/05/20 00:15:51;;;;;;;4.55;2.33;;;18.30;99.90;;;;;;5042175;28;20093;-80
2022/05/20 00:18:17;;;;;;;4.13;2.40;;;18.30;99.90;;;;;;5040542;28;20025;-81
2022/05/20 00:20:43;;;;;;;2.45;2.28;;;18.30;99.90;;;;;;5045304;28;20451;-81
2022/05/20 00:23:10;;;;;;;2.95;2.72;;;18.20;99.90;;;;;;5046035;28;20026;-78
2022/05/20 00:25:48;;;;;;;3.38;2.60;;;18.10;99.90;;;;;;5051052;28;20021;-80
2022/05/20 00:28:25;;;;;;;4.10;2.50;;;18.10;99.90;;;;;;5051203;28;20073;-79
2022/05/20 00:30:55;;;;;;;4.07;2.60;;;17.90;99.90;;;;;;5048599;28;20060;-81
2022/05/20 00:33:22;;;;;;;2.75;2.28;;;17.90;99.90;;;;;;5042483;28;20105;-79
2022/05/20 00:35:48;;;;;;;2.83;2.63;;;17.80;99.90;;;;;;5040991;28;20029;-81
2022/05/20 00:38:15;;;;;;;3.40;2.75;;;17.80;99.90;;;;;;5057358;28;20075;-81
2022/05/20 00:40:41;;;;;;;2.60;2.35;;;17.80;99.90;;;;;;5041037;28;20017;-81
2022/05/20 00:43:28;;;;;;;2.50;2.30;;;17.70;99.90;;;;;;5040817;28;20028;-79
2022/05/20 00:46:21;;;;;;;2.58;2.38;;;17.70;99.90;;;;;;5040878;28;20170;-80
2022/05/20 00:48:57;;;;;;;3.00;2.70;;;17.70;99.90;;;;;;5038349;28;20097;-81
2022/05/20 00:51:49;;;;;;;2.70;2.47;;;17.70;99.90;;;;;;5044354;28;20026;-81
2022/05/20 00:54:29;;;;;;;4.53;2.90;;;17.70;99.90;;;;;;5047737;28;20040;-79
2022/05/20 00:57:08;;;;;;;3.05;2.75;;;17.70;99.90;;;;;;5065868;28;20040;-79
2022/05/20 00:59:39;;;;;;;3.72;2.78;;;17.60;99.90;;;;;;5051437;28;20080;-78
2022/05/20 01:02:09;;;;;;;2.90;2.50;;;17.60;99.90;;;;;;5051312;28;20022;-80
2022/05/20 01:04:36;;;;;;;2.90;2.70;;;17.60;99.90;;;;;;5034221;28;20029;-80
2022/05/20 01:07:03;;;;;;;2.83;2.63;;;17.60;99.90;;;;;;5052452;28;20379;-80
2022/05/20 01:09:29;;;;;;;3.75;3.08;;;17.60;99.90;;;;;;5051912;28;20040;-79
2022/05/20 01:11:55;;;;;;;6.38;3.20;;;17.60;99.90;;;;;;5051132;28;20018;-79
2022/05/20 01:14:25;;;;;;;4.93;2.92;;;17.60;99.90;;;;;;5048704;28;20101;-81
2022/05/20 01:16:51;;;;;;;3.40;2.53;;;17.60;99.90;;;;;;5047264;28;20022;-80
2022/05/20 01:19:24;;;;;;;4.10;2.58;;;17.60;99.90;;;;;;5046903;28;20045;-80
2022/05/20 01:21:50;;;;;;;4.28;3.53;;;17.60;99.90;;;;;;5048973;28;20073;-80
2022/05/20 01:24:16;;;;;;;2.75;2.55;;;17.60;99.90;;;;;;5048680;28;20026;-80
2022/05/20 01:26:41;;;;;;;2.88;2.65;;;17.60;99.90;;;;;;5047445;28;20051;-80
2022/05/20 01:29:07;;;;;;;4.32;3.00;;;17.60;99.90;;;;;;5050183;28;20009;-82
2022/05/20 01:31:33;;;;;;;3.83;3.15;;;17.50;99.90;;;;;;5048797;28;20043;-80
2022/05/20 01:33:59;;;;;;;3.85;2.75;;;17.50;99.90;;;;;;5047918;28;20025;-78
2022/05/20 01:36:26;;;;;;;4.35;3.03;;;17.50;99.90;;;;;;5047841;28;20416;-79
2022/05/20 01:38:54;;;;;;;3.30;3.00;;;17.50;99.90;;;;;;5048260;28;20049;-79
2022/05/20 01:41:19;;;;;;;2.80;2.50;;;17.50;99.90;;;;;;5046161;28;20014;-80
2022/05/20 01:43:45;;;;;;;3.08;2.88;;;17.50;99.90;;;;;;5045429;28;20083;-80
2022/05/20 01:46:14;;;;;;;3.70;2.53;;;17.50;99.90;;;;;;5046874;28;20152;-79
2022/05/20 01:48:51;;;;;;;3.97;2.63;;;17.50;99.90;;;;;;5028325;28;20025;-81
2022/05/20 01:51:20;;;;;;;3.13;2.50;;;17.50;99.90;;;;;;5046691;28;20282;-80
2022/05/20 01:53:55;;;;;;;2.97;2.47;;;17.50;99.90;;;;;;5046709;28;20052;-80
2022/05/20 01:56:46;;;;;;;2.30;2.10;;;17.50;99.90;;;;;;5029229;28;20128;-80
2022/05/20 01:59:28;;;;;;;2.60;2.30;;;17.50;99.90;;;;;;5046553;28;20041;-80
2022/05/20 02:02:12;;;;;;;2.63;2.42;;;17.50;99.90;;;;;;5046385;28;20104;-81
2022/05/20 02:04:44;;;;;;;3.42;2.40;;;17.50;99.90;;;;;;5046984;28;20029;-79
2022/05/20 02:07:22;;;;;;;2.05;1.88;;;17.40;99.90;;;;;;5046819;28;20018;-80
2022/05/20 02:10:16;;;;;;;4.22;2.25;;;17.40;99.90;;;;;;5044358;28;20025;-81
2022/05/20 02:12:46;;;;;;;1.90;1.80;;;17.40;99.90;;;;;;5041493;28;20088;-79
2022/05/20 02:15:36;;;;;;;3.70;2.30;;;17.40;99.90;;;;;;5038536;28;20092;-80
2022/05/20 02:18:05;;;;;;;1.95;1.85;;;17.30;99.90;;;;;;5044604;28;20032;-80
2022/05/20 02:20:37;;;;;;;2.13;2.03;;;17.30;99.90;;;;;;5047232;28;20386;-80
2022/05/20 02:23:04;;;;;;;;;;;17.30;99.90;;;;;;5047946;28;20055;-79
2022/05/20 02:25:37;;;;;;;2.58;2.03;;;17.30;99.90;;;;;;5046156;28;20193;-80
2022/05/20 02:28:12;;;;;;;2.75;2.05;;;17.20;99.90;;;;;;5048238;28;20478;-81
2022/05/20 02:30:38;;;;;;;2.05;1.95;;;17.20;99.90;;;;;;5049343;28;20474;-80
2022/05/20 02:33:21;;;;;;;2.30;2.03;;;17.20;99.90;;;;;;5048573;28;20021;-79
2022/05/20 02:35:47;;;;;;;2.35;2.15;;;17.20;99.90;;;;;;5047814;28;20034;-82
2022/05/20 02:38:23;;;;;;;2.83;1.80;;;17.20;99.90;;;;;;5045860;28;20064;-80
2022/05/20 02:40:51;;;;;;;2.47;2.17;;;17.20;99.90;;;;;;5046734;28;20029;-81
2022/05/20 02:43:18;;;;;;;2.20;2.00;;;17.20;99.90;;;;;;5046434;28;20018;-80
2022/05/20 02:45:46;;;;;;;2.30;2.10;;;17.20;99.90;;;;;;5046213;28;20049;-81
2022/05/20 02:48:14;;;;;;;2.00;1.75;;;17.20;99.90;;;;;;5047362;28;20025;-79
2022/05/20 02:50:40;;;;;;;2.03;1.83;;;17.20;99.90;;;;;;5047369;28;20036;-80
2022/05/20 02:53:05;;;;;;;1.98;1.80;;;17.20;99.90;;;;;;5047865;28;20030;-80
2022/05/20 02:55:31;;;;;;;2.22;2.10;;;17.10;99.90;;;;;;5046836;28;20501;-81
2022/05/20 02:57:57;;;;;;;2.20;2.00;;;17.10;99.90;;;;;;5047478;28;20061;-79
2022/05/20 03:05:56;;;;;;;1.95;1.85;;;17.00;99.90;;;;;;5023894;28;20049;-79
2022/05/20 03:08:22;;;;;;;2.10;2.00;;;17.00;99.90;;;;;;5053052;28;20029;-79
2022/05/20 03:10:48;;;;;;;2.38;2.10;;;16.90;99.90;;;;;;5051440;28;20089;-79
2022/05/20 03:13:14;;;;;;;2.30;2.10;;;16.90;99.90;;;;;;5050071;28;20063;-81
2022/05/20 03:15:41;;;;;;;2.50;2.30;;;16.90;99.90;;;;;;5050264;28;20173;-80
2022/05/20 03:18:12;;;;;;;2.08;1.98;;;16.80;99.90;;;;;;5050128;28;20049;-81
2022/05/20 03:20:39;;;;;;;3.58;2.17;;;16.80;99.90;;;;;;5050069;28;20034;-80
2022/05/20 03:23:06;;;;;;;5.20;2.33;;;16.80;99.90;;;;;;5050993;28;20018;-80
2022/05/20 03:25:31;;;;;;;2.00;1.90;;;16.70;99.90;;;;;;5051025;28;20518;-79
2022/05/20 03:27:58;;;;;;;2.10;1.88;;;16.70;99.90;;;;;;5050214;28;20024;-79
2022/05/20 03:30:24;;;;;;;2.85;2.17;;;16.70;99.90;;;;;;5033692;28;20029;-80
2022/05/20 03:32:51;;;;;;;2.20;2.10;;;16.70;99.90;;;;;;5050571;28;20044;-80
2022/05/20 03:35:17;;;;;;;2.33;1.83;;;16.80;99.90;;;;;;5050795;28;20097;-80
2022/05/20 03:37:42;;;;;;;2.35;2.15;;;16.80;99.90;;;;;;5050438;28;20029;-80
2022/05/20 03:40:09;;;;;;;2.40;2.10;;;16.80;99.90;;;;;;5051262;28;20033;-80
2022/05/20 03:42:34;;;;;;;2.38;2.17;;;16.80;99.90;;;;;;5051065;28;20025;-80
2022/05/20 03:45:00;;;;;;;2.33;2.08;;;16.80;99.90;;;;;;5050612;28;20032;-80
2022/05/20 03:47:26;;;;;;;2.22;2.03;;;16.80;99.90;;;;;;5050015;28;20036;-79
2022/05/20 03:49:52;;;;;;;2.00;1.90;;;16.90;99.90;;;;;;5049293;28;20041;-79
2022/05/20 03:52:18;;;;;;;2.08;1.92;;;16.90;99.90;;;;;;5050347;28;20029;-80
2022/05/20 03:54:44;;;;;;;2.10;1.90;;;16.90;99.90;;;;;;5049503;28;20025;-80
2022/05/20 03:57:10;;;;;;;3.47;2.10;;;17.00;99.90;;;;;;5049884;28;20048;-80
2022/05/20 03:59:37;;;;;;;2.22;1.83;;;17.00;99.90;;;;;;5032722;28;20034;-79
2022/05/20 04:02:06;;;;;;;2.40;1.80;;;17.10;99.90;;;;;;5046231;28;20026;-81
2022/05/20 04:04:48;;;;;;;2.10;1.90;;;17.10;99.90;;;;;;5048679;28;20021;-81
2022/05/20 04:07:20;;;;;;;2.10;2.00;;;17.20;99.90;;;;;;5049799;28;20538;-80
2022/05/20 04:09:48;;;;;;;3.45;2.28;;;17.20;99.90;;;;;;5051114;28;20040;-81
2022/05/20 04:12:25;;;;;;;2.22;2.03;;;17.30;99.90;;;;;;5044498;28;20018;-81
2022/05/20 04:14:51;;;;;;;2.20;2.10;;;17.30;99.90;;;;;;5027856;28;20029;-79
2022/05/20 04:17:17;;;;;;;2.30;2.10;;;17.40;99.90;;;;;;5042171;28;20026;-78
2022/05/20 04:19:43;;;;;;;2.13;1.75;;;17.40;99.90;;;;;;5048952;28;20044;-79
2022/05/20 04:22:11;;;;;;;2.05;1.95;;;17.50;99.90;;;;;;5049986;28;20045;-79
2022/05/20 04:24:37;;;;;;;2.03;1.85;;;17.50;99.90;;;;;;5045877;28;20022;-80
2022/05/20 04:27:03;;;;;;;2.00;1.90;;;17.60;99.90;;;;;;5041456;28;20032;-79
2022/05/20 04:29:29;;;;;;;1.65;1.55;;;17.70;99.90;;;;;;5048804;28;20025;-78
2022/05/20 04:31:56;;;;;;;1.77;1.67;;;17.80;99.90;;;;;;5047611;28;20108;-79
2022/05/20 04:34:22;;;;;;;2.83;2.05;;;17.80;99.90;;;;;;5047487;28;20029;-79
2022/05/20 04:36:48;;;;;;;2.55;2.35;;;17.90;99.90;;;;;;5048832;28;20081;-80
2022/05/20 04:39:14;;;;;;;1.45;1.42;;;18.00;99.90;;;;;;5046964;28;20040;-80
2022/05/20 04:47:20;;;;;;;1.80;1.70;;;18.40;99.90;;;;;;5039711;28;20032;-82
2022/05/20 04:49:46;;;;;;;1.90;1.80;;;18.60;99.90;;;;;;5038651;28;20048;-81
2022/05/20 04:52:12;;;;;;;1.90;1.73;;;18.80;99.90;;;;;;5039214;28;20386;-81
2022/05/20 04:54:50;;;;;;;2.05;1.95;;;18.90;99.90;;;;;;5052792;28;20391;-78
2022/05/20 04:57:40;;;;;;;1.80;1.70;;;19.10;99.90;;;;;;5044115;28;20041;-82
2022/05/20 05:00:10;;;;;;;1.90;1.80;;;19.20;99.90;;;;;;5042854;28;20095;-80
2022/05/20 05:02:37;;;;;;;2.08;1.88;;;19.30;99.90;;;;;;5043870;28;20072;-80
2022/05/20 05:05:04;;;;;;;2.15;2.03;;;19.50;99.90;;;;;;5032783;28;20022;-82
2022/05/20 05:07:31;;;;;;;2.38;1.80;;;19.80;99.90;;;;;;5038168;28;20022;-80
2022/05/20 05:09:58;;;;;;;2.08;1.60;;;20.10;99.90;;;;;;5020771;28;20429;-80
2022/05/20 05:12:23;;;;;;;1.65;1.55;;;21.10;99.90;;;;;;5040662;28;20081;-80
2022/05/20 05:14:52;;;;;;;2.85;2.15;;;22.40;99.90;;;;;;5039656;28;20099;-81
2022/05/20 05:18:09;;;;;;;1.60;1.50;;;23.00;95.90;;;;;;5039306;28;20057;-81
2022/05/20 05:20:10;;;;;;;2.17;1.58;;;23.50;93.60;;;;;;5040329;28;20033;-81
2022/05/20 05:22:35;;;;;;;2.47;1.40;;;24.00;90.60;;;;;;5045476;28;20017;-80
2022/05/20 05:25:01;;;;;;;1.50;1.40;;;24.60;85.90;;;;;;5045510;28;20036;-80
2022/05/20 05:27:27;;;;;;;1.35;1.25;;;24.40;81.10;;;;;;5046801;28;20056;-81
2022/05/20 05:29:53;;;;;;;1.13;1.13;;;24.40;80.70;;;;;;5042989;28;20095;-80
2022/05/20 05:32:20;;;;;;;2.05;1.35;;;25.10;77.60;;;;;;5038536;28;20034;-80
2022/05/20 05:34:45;;;;;;;1.23;1.17;;;27.00;72.60;;;;;;5037212;28;20032;-79
2022/05/20 05:37:11;;;;;;;1.20;1.20;;;28.90;65.80;;;;;;5053237;28;20013;-79
2022/05/20 05:39:38;;;;;;;1.48;1.38;;;30.70;60.20;;;;;;5053730;28;20085;-77
2022/05/20 05:42:04;;;;;;;2.97;1.30;;;32.30;54.80;;;;;;5053743;28;20006;-78
2022/05/20 05:44:30;;;;;;;1.45;1.35;;;33.90;51.70;;;;;;5053147;28;20097;-80
2022/05/20 05:46:55;;;;;;;1.55;1.45;;;35.40;49.30;;;;;;5052313;28;20029;-80
2022/05/20 05:49:22;;;;;;;2.10;1.20;;;36.60;46.60;;;;;;5043889;28;20025;-81
2022/05/20 05:51:48;;;;;;;1.88;1.60;;;36.40;44.50;;;;;;5043583;28;20060;-81
2022/05/20 05:54:13;;;;;;;1.45;1.33;;;35.10;45.00;;;;;;5040989;28;20021;-81
2022/05/20 05:56:39;;;;;;;1.45;1.33;;;34.20;45.50;;;;;;5040847;28;20388;-81
2022/05/20 05:59:05;;;;;;;1.60;1.50;;;33.90;46.40;;;;;;5039519;28;20033;-79
2022/05/20 06:01:31;;;;;;;1.58;1.48;;;34.10;46.10;;;;;;5042585;28;20560;-80
2022/05/20 06:03:57;;;;;;;1.90;1.80;;;34.60;45.70;;;;;;5044568;28;20029;-80
2022/05/20 06:06:22;;;;;;;2.15;1.80;;;35.00;44.80;;;;;;5043551;28;20109;-79
2022/05/20 06:08:48;;;;;;;2.10;1.58;;;35.20;44.20;;;;;;5044446;28;20022;-79
2022/05/20 06:11:14;;;;;;;1.58;1.45;;;35.20;43.80;;;;;;5044078;28;20028;-80
2022/05/20 06:13:41;;;;;;;2.22;1.63;;;35.00;43.40;;;;;;5043032;28;20060;-80
2022/05/20 06:16:06;;;;;;;2.00;1.60;;;34.60;44.00;;;;;;5043129;28;20025;-79
2022/05/20 06:18:32;;;;;;;3.17;1.75;;;34.50;44.00;;;;;;5043813;28;20049;-80
2022/05/20 06:20:59;;;;;;;1.75;1.65;;;34.50;44.10;;;;;;5043182;28;20077;-80
2022/05/20 06:23:25;;;;;;;1.80;1.70;;;34.50;43.50;;;;;;5042715;28;20022;-79
2022/05/20 06:25:51;;;;;;;1.70;1.60;;;34.30;43.40;;;;;;5043113;28;20048;-80
2022/05/20 06:28:18;;;;;;;1.63;1.52;;;33.70;44.20;;;;;;5042920;28;20108;-80
2022/05/20 06:30:44;;;;;;;1.75;1.60;;;33.20;44.80;;;;;;5043336;28;20458;-80
2022/05/20 06:33:11;;;;;;;1.52;1.42;;;33.40;45.30;;;;;;5044839;28;20036;-80
2022/05/20 06:41:06;;;;;;;1.75;1.52;;;35.10;42.70;;;;;;5044898;28;20036;-80
2022/05/20 06:43:32;;;;;;;3.00;1.98;;;34.90;42.80;;;;;;5047653;28;20021;-80
2022/05/20 06:46:01;;;;;;;2.30;2.10;;;34.90;42.80;;;;;;5048218;28;20021;-80
2022/05/20 06:48:50;;;;;;;1.60;1.50;;;35.10;42.80;;;;;;5039212;28;20478;-80
2022/05/20 06:51:23;;;;;;;1.75;1.65;;;35.30;42.40;;;;;;5039856;28;20025;-79
2022/05/20 06:53:52;;;;;;;3.13;1.60;;;35.90;41.70;;;;;;5039317;28;20040;-80
2022/05/20 06:56:19;;;;;;;1.90;1.80;;;36.30;41.40;;;;;;5041733;28;20029;-80
2022/05/20 06:58:45;;;;;;;1.70;1.60;;;36.50;41.20;;;;;;5041221;28;20509;-80
2022/05/20 07:01:11;;;;;;;1.50;1.42;;;36.70;40.80;;;;;;5048111;28;20061;-78
2022/05/20 07:03:37;;;;;;;1.95;1.85;;;37.20;40.40;;;;;;5043375;28;20060;-79
2022/05/20 07:06:04;;;;;;;1.77;1.67;;;37.00;39.30;;;;;;5041790;28;20025;-79
2022/05/20 07:08:30;;;;;;;3.30;1.73;;;34.80;40.70;;;;;;5024972;28;20021;-79
2022/05/20 07:10:56;;;;;;;2.25;1.90;;;32.10;43.70;;;;;;5042267;28;20476;-79
2022/05/20 07:13:22;;;;;;;2.70;2.13;;;30.00;46.90;;;;;;5038014;28;20041;-79
2022/05/20 07:15:49;;;;;;;2.00;1.90;;;28.30;49.70;;;;;;5041891;28;20045;-79
2022/05/20 07:18:18;;;;;;;2.22;2.03;;;27.20;52.20;;;;;;5042455;28;20099;-79
2022/05/20 07:20:44;;;;;;;2.10;1.83;;;26.50;53.90;;;;;;5024053;28;20029;-79
2022/05/20 07:23:09;;;;;;;2.20;1.83;;;26.00;55.30;;;;;;5038820;28;20021;-78
2022/05/20 07:25:37;;;;;;;2.47;2.28;;;25.70;56.20;;;;;;5039338;28;20045;-79
2022/05/20 07:28:03;;;;;;;2.70;1.65;;;25.60;56.60;;;;;;5038660;28;20116;-78
2022/05/20 07:30:29;;;;;;;2.72;1.85;;;25.40;57.10;;;;;;5020654;28;20029;-79
2022/05/20 07:32:55;;;;;;;2.70;1.52;;;25.30;57.50;;;;;;5037163;28;20033;-79
2022/05/20 07:35:21;;;;;;;1.80;1.70;;;25.30;57.60;;;;;;5038096;28;20022;-79
2022/05/20 07:37:48;;;;;;;1.70;1.60;;;25.20;57.60;;;;;;5037547;28;20032;-80
2022/05/20 07:40:14;;;;;;;2.88;2.05;;;25.20;57.90;;;;;;5039517;28;20017;-79
2022/05/20 07:42:40;;;;;;;1.67;1.58;;;25.20;57.50;;;;;;5038093;28;20026;-79
2022/05/20 07:45:06;;;;;;;3.53;1.98;;;25.20;57.60;;;;;;5041568;28;20034;-80
2022/05/20 07:47:32;;;;;;;2.35;1.83;;;25.30;57.20;;;;;;5040158;28;20037;-79
2022/05/20 07:49:57;;;;;;;2.13;1.90;;;25.40;57.10;;;;;;5021682;28;20025;-79
2022/05/20 07:55:16;;;;;;;2.33;2.15;;;25.50;56.10;;;;;;5018846;28;20041;-79
2022/05/20 07:57:42;;;;;;;1.67;1.58;;;25.60;56.00;;;;;;5038067;28;20450;-79
2022/05/20 08:00:12;;;;;;;1.90;1.80;;;25.70;55.90;;;;;;5037706;28;20081;-79
2022/05/20 08:02:41;;;;;;;2.00;1.85;;;25.80;55.40;;;;;;5036943;28;20025;-79
2022/05/20 08:05:07;;;;;;;2.08;1.90;;;25.90;54.70;;;;;;5036656;28;20049;-78
2022/05/20 08:07:42;;;;;;;2.40;1.83;;;26.00;53.80;;;;;;5035962;28;20071;-79
2022/05/20 08:10:16;;;;;;;2.55;2.30;;;26.10;53.50;;;;;;5037050;28;20101;-79
2022/05/20 08:12:42;;;;;;;2.15;2.03;;;26.20;53.60;;;;;;5035816;28;20159;-79
2022/05/20 08:15:09;;;;;;;2.38;2.17;;;26.40;53.30;;;;;;5036823;28;20170;-80
2022/05/20 08:17:36;;;;;;;2.53;1.83;;;26.50;52.90;;;;;;5038854;28;20364;-79
2022/05/20 08:20:04;;;;;;;3.75;2.03;;;26.60;52.80;;;;;;5036379;28;20021;-78
2022/05/20 08:22:30;;;;;;;3.42;2.00;;;26.70;52.60;;;;;;5035872;28;20429;-79
2022/05/20 08:24:58;;;;;;;2.10;1.90;;;26.90;52.60;;;;;;5035541;28;20013;-78
2022/05/20 08:27:27;;;;;;;1.60;1.50;;;26.90;52.40;;;;;;5038533;28;20022;-79
2022/05/20 08:29:53;;;;;;;3.80;1.92;;;27.00;52.50;;;;;;5038543;28;20029;-80
2022/05/20 08:32:19;;;;;;;3.22;2.40;;;27.20;52.50;;;;;;5038615;28;20454;-80
2022/05/20 08:34:46;;;;;;;2.20;2.00;;;27.30;52.00;;;;;;5039074;28;20029;-79
2022/05/20 08:37:13;;;;;;;2.10;1.90;;;27.40;51.80;;;;;;5036651;28;20079;-80
2022/05/20 08:39:39;;;;;;;3.38;2.20;;;27.70;51.20;;;;;;5039132;28;20040;-80
2022/05/20 08:42:13;;;;;;;3.40;2.40;;;27.90;50.70;;;;;;5037645;28;20077;-80
2022/05/20 08:44:40;;;;;;;4.45;2.40;;;28.00;49.70;;;;;;5037017;28;20391;-79
2022/05/20 08:47:13;;;;;;;2.42;2.22;;;28.10;48.90;;;;;;5038468;28;20167;-80
2022/05/20 08:49:39;;;;;;;2.47;2.00;;;28.10;49.30;;;;;;5039928;28;20104;-79
2022/05/20 08:52:05;;;;;;;2.42;2.10;;;28.20;49.40;;;;;;5037117;28;20030;-78
2022/05/20 08:54:31;;;;;;;4.68;2.30;;;28.40;49.20;;;;;;5018516;28;20033;-79
2022/05/20 08:56:58;;;;;;;2.33;2.22;;;28.40;49.10;;;;;;5036018;28;20034;-79
2022/05/20 08:59:24;;;;;;;2.72;2.03;;;28.50;49.10;;;;;;5038625;28;20029;-79
2022/05/20 09:01:52;;;;;;;2.05;1.92;;;28.50;49.10;;;;;;5038827;28;20116;-80
2022/05/20 09:04:22;;;;;;;3.47;2.42;;;28.70;48.90;;;;;;5020870;28;20030;-80
2022/05/20 09:07:06;;;;;;;2.28;2.08;;;28.80;48.00;;;;;;5039799;28;20025;-80
2022/05/20 09:09:54;;;;;;;2.50;2.33;;;28.90;48.00;;;;;;5038920;28;20033;-80
2022/05/20 09:12:33;;;;;;;2.28;2.05;;;29.10;48.10;;;;;;5038191;28;20026;-80
2022/05/20 09:18:20;;;;;;;2.10;2.00;;;29.00;47.80;;;;;;5038206;28;20064;-80
2022/05/20 09:20:51;;;;;;;2.30;2.20;;;29.20;47.90;;;;;;5038062;28;20027;-79
2022/05/20 09:23:20;;;;;;;2.33;2.13;;;29.40;47.80;;;;;;5035967;28;20025;-79
2022/05/20 09:25:57;;;;;;;2.78;2.58;;;29.60;47.30;;;;;;5036672;28;20017;-80
2022/05/20 09:28:46;;;;;;;2.40;2.17;;;29.60;47.30;;;;;;5037194;28;20033;-80
2022/05/20 09:31:13;;;;;;;2.75;2.30;;;29.70;47.20;;;;;;5038721;28;20116;-80
2022/05/20 09:33:46;;;;;;;3.53;2.53;;;29.60;47.40;;;;;;5038333;28;20033;-79
2022/05/20 09:36:32;;;;;;;2.10;2.00;;;29.70;47.30;;;;;;5018393;28;20529;-79
2022/05/20 09:39:12;;;;;;;3.10;2.65;;;29.90;46.90;;;;;;5036967;28;20014;-79
2022/05/20 09:41:46;;;;;;;2.53;2.33;;;30.00;45.70;;;;;;5028263;28;20029;-79
2022/05/20 09:44:13;;;;;;;2.95;2.47;;;30.10;44.70;;;;;;5034462;28;20025;-79
2022/05/20 09:46:54;;;;;;;6.18;2.47;;;30.30;44.80;;;;;;5035152;28;20021;-79
2022/05/20 09:49:42;;;;;;;3.38;2.92;;;30.40;45.30;;;;;;5036619;28;20022;-79
2022/05/20 09:52:25;;;;;;;2.42;2.22;;;30.40;44.70;;;;;;5046033;28;20032;-79
2022/05/20 09:55:01;;;;;;;3.90;2.67;;;30.50;44.20;;;;;;5022913;28;20028;-79
2022/05/20 09:57:39;;;;;;;5.07;2.80;;;30.60;44.10;;;;;;5050634;28;20025;-79
2022/05/20 10:00:26;;;;;;;3.13;2.65;;;30.90;43.00;;;;;;5034592;28;20033;-80
2022/05/20 10:03:19;;;;;;;3.95;2.45;;;31.00;43.30;;;;;;5050863;28;20026;-78
2022/05/20 10:05:45;;;;;;;3.10;2.22;;;31.10;42.90;;;;;;5047702;28;20017;-82
2022/05/20 10:08:17;;;;;;;4.43;2.75;;;31.10;42.60;;;;;;5047804;28;20037;-81
2022/05/20 10:10:42;;;;;;;5.65;3.40;;;31.30;42.00;;;;;;5052870;28;20088;-80
2022/05/20 10:13:18;;;;;;;4.68;2.65;;;31.40;41.80;;;;;;5052115;28;20033;-80
2022/05/20 10:15:51;;;;;;;4.50;2.83;;;31.50;41.30;;;;;;5049668;28;20384;-80
2022/05/20 10:18:39;;;;;;;3.83;2.58;;;31.70;41.50;;;;;;5042698;28;20055;-81
2022/05/20 10:21:40;;;;;;;3.45;2.53;;;31.80;41.10;;;;;;5043005;28;20030;-81
2022/05/20 10:24:17;;;;;;;4.28;2.60;;;31.80;41.20;;;;;;5041723;28;20021;-79
2022/05/20 10:27:08;;;;;;;4.75;2.60;;;31.80;40.90;;;;;;5042703;28;20022;-80
2022/05/20 10:32:34;;;;;;;4.43;2.60;;;32.00;41.30;;;;;;5043625;28;20060;-80
2022/05/20 10:35:03;;;;;;;6.30;2.80;;;32.00;40.40;;;;;;5047821;28;20104;-81
2022/05/20 10:37:35;;;;;;;3.28;2.95;;;32.00;40.90;;;;;;5043969;28;20053;-80
2022/05/20 10:40:06;;;;;;;4.63;2.25;;;32.00;40.70;;;;;;5043304;28;20049;-81
2022/05/20 10:43:06;;;;;;;3.75;2.50;;;32.10;40.20;;;;;;5042310;28;20029;-81
2022/05/20 10:48:49;;;;;;;2.97;2.40;;;32.10;40.30;;;;;;5042080;28;20037;-80
2022/05/20 10:51:49;;;;;;;6.35;2.63;;;32.00;40.40;;;;;;5024283;28;20029;-81
2022/05/20 10:54:58;;;;;;;3.45;2.85;;;32.00;40.60;;;;;;5042659;28;20037;-80
2022/05/20 10:57:33;;;;;;;3.33;2.78;;;32.10;40.70;;;;;;4961689;28;20063;-80
2022/05/20 11:00:13;;;;;;;3.33;3.00;;;32.20;41.00;;;;;;5036653;28;20089;-81
2022/05/20 11:03:16;;;;;;;5.57;3.78;;;32.30;41.00;;;;;;5042059;28;20075;-81
2022/05/20 11:06:08;;;;;;;7.38;3.53;;;32.30;40.80;;;;;;5041022;28;20101;-80
2022/05/20 11:08:34;;;;;;;4.97;2.95;;;32.40;41.10;;;;;;5041688;28;20025;-81
2022/05/20 11:11:31;;;;;;;4.10;2.95;;;32.50;41.10;;;;;;5041325;28;20152;-80
2022/05/20 11:14:14;;;;;;;5.22;2.92;;;32.70;40.00;;;;;;5036176;28;20029;-80
2022/05/20 11:17:09;;;;;;;4.07;2.72;;;32.80;39.50;;;;;;5041390;28;20473;-80
2022/05/20 11:19:35;;;;;;;2.70;2.50;;;32.80;39.80;;;;;;5022144;28;20108;-81
2022/05/20 11:22:09;;;;;;;2.45;2.28;;;33.00;39.70;;;;;;5040514;28;20002;-80
2022/05/20 11:24:41;;;;;;;4.50;2.80;;;33.10;39.10;;;;;;5042518;28;20010;-81
2022/05/20 11:27:24;;;;;;;5.03;3.20;;;33.10;38.40;;;;;;5042149;28;20021;-81
2022/05/20 11:30:05;;;;;;;6.00;2.60;;;33.10;39.30;;;;;;5028425;28;20026;-81
2022/05/20 11:32:40;;;;;;;3.30;3.00;;;33.20;39.50;;;;;;5042636;28;20026;-81
2022/05/20 11:35:30;;;;;;;6.18;2.78;;;33.20;39.40;;;;;;5041063;28;20406;-79
2022/05/20 11:38:05;;;;;;;2.65;2.45;;;33.20;39.20;;;;;;5041115;28;20041;-81
2022/05/20 11:41:13;;;;;;;3.53;3.05;;;33.20;39.20;;;;;;5044470;28;20104;-80
2022/05/20 11:44:17;;;;;;;5.05;2.80;;;33.40;39.10;;;;;;5010603;28;20033;-80
2022/05/20 11:46:51;;;;;;;3.25;3.03;;;33.70;38.80;;;;;;5042083;28;20497;-81
2022/05/20 11:49:41;;;;;;;5.00;2.88;;;34.00;38.60;;;;;;5041904;28;20028;-81
2022/05/20 11:52:19;;;;;;;4.40;2.58;;;34.20;38.40;;;;;;5041543;28;20047;-81
2022/05/20 11:55:09;;;;;;;4.20;2.80;;;34.30;36.90;;;;;;5041277;28;20045;-81
2022/05/20 11:57:39;;;;;;;2.75;2.50;;;34.10;37.30;;;;;;5023951;28;20128;-80
2022/05/20 12:00:11;;;;;;;7.55;3.08;;;34.00;37.00;;;;;;5020563;28;20096;-80
2022/05/20 12:02:53;;;;;;;2.50;2.40;;;33.80;36.90;;;;;;5021523;28;20022;-80
2022/05/20 12:05:24;;;;;;;3.80;3.00;;;33.80;37.30;;;;;;5037653;28;20021;-81
2022/05/20 12:07:50;;;;;;;4.70;3.20;;;34.00;37.30;;;;;;5041446;28;20025;-81
2022/05/20 12:10:46;;;;;;;3.00;2.50;;;34.30;37.10;;;;;;5042619;28;20029;-80
2022/05/20 12:13:26;;;;;;;3.85;2.53;;;34.40;37.40;;;;;;5034641;28;20034;-78
2022/05/20 12:16:24;;;;;;;3.25;2.80;;;34.30;37.40;;;;;;5041953;28;20025;-81
2022/05/20 12:24:49;;;;;;;5.07;3.15;;;34.40;36.60;;;;;;5040682;28;20075;-80
2022/05/20 12:27:22;;;;;;;4.32;2.42;;;34.50;36.70;;;;;;5038440;28;20059;-80
2022/05/20 12:30:03;;;;;;;6.22;2.95;;;34.60;36.50;;;;;;5040606;28;20022;-81
2022/05/20 12:32:34;;;;;;;;;;;34.50;36.50;;;;;;5040882;28;20109;-80
2022/05/20 12:35:06;;;;;;;5.53;3.22;;;34.40;37.00;;;;;;5040493;28;19909;-81
2022/05/20 12:37:43;;;;;;;13.20;3.20;;;34.20;37.50;;;;;;5041880;28;20017;-79
2022/05/20 12:40:24;;;;;;;3.83;2.85;;;34.20;37.40;;;;;;5043587;28;20025;-79
2022/05/20 12:43:02;;;;;;;3.92;2.72;;;34.30;36.70;;;;;;5052285;28;20052;-81
2022/05/20 12:45:33;;;;;;;4.00;2.95;;;34.30;36.30;;;;;;5042732;28;20030;-80
2022/05/20 12:47:59;;;;;;;7.88;3.40;;;34.20;36.50;;;;;;5041056;28;20056;-78
2022/05/20 12:50:27;;;;;;;6.38;3.22;;;34.40;36.50;;;;;;5042006;28;20034;-80
2022/05/20 12:52:59;;;;;;;5.32;3.08;;;34.50;36.60;;;;;;5041481;28;20033;-80
2022/05/20 12:55:34;;;;;;;4.18;3.20;;;34.40;36.40;;;;;;5041738;28;20055;-79
2022/05/20 12:58:06;;;;;;;4.32;2.92;;;34.40;37.10;;;;;;5041210;28;20036;-81
2022/05/20 13:00:41;;;;;;;8.13;3.17;;;34.60;36.90;;;;;;5041889;28;20092;-80
2022/05/20 13:03:15;;;;;;;3.85;3.33;;;34.70;35.90;;;;;;5040670;28;20028;-80
2022/05/20 13:06:00;;;;;;;3.80;2.67;;;34.60;36.40;;;;;;5040708;28;20033;-80
2022/05/20 13:08:48;;;;;;;7.57;2.70;;;34.50;36.20;;;;;;5041938;28;20025;-80
2022/05/20 13:11:16;;;;;;;5.30;3.08;;;34.40;36.40;;;;;;5041784;28;20428;-78
2022/05/20 13:13:43;;;;;;;4.18;2.95;;;34.50;36.20;;;;;;5040136;28;20022;-80
2022/05/20 13:16:12;;;;;;;4.55;2.63;;;34.50;36.20;;;;;;5040333;28;20097;-81
2022/05/20 13:18:41;;;;;;;5.50;3.33;;;34.50;36.20;;;;;;5039584;28;20093;-80
2022/05/20 13:21:15;;;;;;;5.20;3.58;;;34.60;36.20;;;;;;5040545;28;20103;-80
2022/05/20 13:23:43;;;;;;;4.88;3.10;;;34.60;36.50;;;;;;5039796;28;20065;-81
2022/05/20 13:26:28;;;;;;;4.07;2.95;;;34.60;35.90;;;;;;5040292;28;20410;-79
2022/05/20 13:29:14;;;;;;;3.60;2.40;;;34.60;35.70;;;;;;5030900;28;20013;-80
2022/05/20 13:31:41;;;;;;;3.40;3.10;;;34.50;35.70;;;;;;5040439;28;20024;-81
2022/05/20 13:34:06;;;;;;;2.95;2.70;;;34.50;35.90;;;;;;5039533;28;20025;-79
2022/05/20 13:36:43;;;;;;;2.95;2.72;;;34.60;35.90;;;;;;5039971;28;20025;-80
2022/05/20 13:39:15;;;;;;;3.20;2.80;;;34.50;35.90;;;;;;5039890;28;20029;-80
2022/05/20 13:41:41;;;;;;;3.28;2.70;;;34.60;35.90;;;;;;5040360;28;20021;-79
2022/05/20 13:44:07;;;;;;;3.85;2.80;;;34.70;35.60;;;;;;5024558;28;20022;-81
2022/05/20 13:49:23;;;;;;;2.90;2.70;;;34.80;34.70;;;;;;5040936;28;20091;-80